sensor_id;sensor_type;location;lat;lon;timestamp;pressure;altitude;pressure_sealevel;temperature;humidity
49813;BME280;35706;52.100;5.056;2023-06-22T00:00:23;101887.75;;;23.53;61.57
49813;BME280;35706;52.100;5.056;2023-06-22T00:01:23;101886.91;;;23.46;62.37
49813;BME280;35706;52.100;5.056;2023-06-22T00:02:24;101888.63;;;23.54;62.03
49813;BME280;35706;52.100;5.056;2023-06-22T00:03:25;101893.56;;;23.57;62.17
49813;BME280;35706;52.100;5.056;2023-06-22T00:04:26;101895.72;;;23.40;62.50
49813;BME280;35706;52.100;5.056;2023-06-22T00:05:26;101892.75;;;23.56;61.52
49813;BME280;35706;52.100;5.056;2023-06-22T00:06:27;101894.50;;;23.71;60.70
49813;BME280;35706;52.100;5.056;2023-06-22T00:07:28;101889.06;;;23.64;61.55
49813;BME280;35706;52.100;5.056;2023-06-22T00:08:28;101894.75;;;23.76;61.58
49813;BME280;35706;52.100;5.056;2023-06-22T00:09:29;101892.06;;;23.76;61.03
49813;BME280;35706;52.100;5.056;2023-06-22T00:10:30;101894.59;;;23.84;60.78
49813;BME280;35706;52.100;5.056;2023-06-22T00:11:30;101901.22;;;23.88;60.85
49813;BME280;35706;52.100;5.056;2023-06-22T00:12:32;101900.63;;;23.93;60.74
49813;BME280;35706;52.100;5.056;2023-06-22T00:13:33;101898.97;;;23.92;61.00
49813;BME280;35706;52.100;5.056;2023-06-22T00:14:33;101905.44;;;23.41;62.83
49813;BME280;35706;52.100;5.056;2023-06-22T00:15:34;101902.69;;;23.34;62.38
49813;BME280;35706;52.100;5.056;2023-06-22T00:16:35;101900.16;;;23.54;62.11
49813;BME280;35706;52.100;5.056;2023-06-22T00:17:35;101902.22;;;23.52;62.23
49813;BME280;35706;52.100;5.056;2023-06-22T00:18:35;101897.84;;;23.51;62.22
49813;BME280;35706;52.100;5.056;2023-06-22T00:19:36;101896.53;;;23.69;61.22
49813;BME280;35706;52.100;5.056;2023-06-22T00:20:36;101899.72;;;23.51;62.12
49813;BME280;35706;52.100;5.056;2023-06-22T00:21:37;101894.88;;;23.68;61.87
49813;BME280;35706;52.100;5.056;2023-06-22T00:22:38;101887.59;;;23.62;61.68
49813;BME280;35706;52.100;5.056;2023-06-22T00:23:39;101888.09;;;23.72;61.42
49813;BME280;35706;52.100;5.056;2023-06-22T00:24:39;101887.59;;;23.62;61.73
49813;BME280;35706;52.100;5.056;2023-06-22T00:25:40;101889.75;;;23.73;61.78
49813;BME280;35706;52.100;5.056;2023-06-22T00:26:40;101884.78;;;23.70;61.69
49813;BME280;35706;52.100;5.056;2023-06-22T00:27:40;101884.00;;;23.76;61.67
49813;BME280;35706;52.100;5.056;2023-06-22T00:28:41;101877.78;;;23.75;61.31
49813;BME280;35706;52.100;5.056;2023-06-22T00:29:41;101880.09;;;23.78;61.45
49813;BME280;35706;52.100;5.056;2023-06-22T00:30:42;101876.78;;;23.76;61.38
49813;BME280;35706;52.100;5.056;2023-06-22T00:31:42;101873.09;;;23.77;61.45
49813;BME280;35706;52.100;5.056;2023-06-22T00:32:43;101876.81;;;23.48;62.91
49813;BME280;35706;52.100;5.056;2023-06-22T00:33:44;101871.13;;;23.36;63.27
49813;BME280;35706;52.100;5.056;2023-06-22T00:34:44;101874.06;;;23.42;62.96
49813;BME280;35706;52.100;5.056;2023-06-22T00:35:44;101872.28;;;23.55;62.27
49813;BME280;35706;52.100;5.056;2023-06-22T00:36:45;101868.97;;;23.53;62.45
49813;BME280;35706;52.100;5.056;2023-06-22T00:37:45;101868.13;;;23.46;63.23
49813;BME280;35706;52.100;5.056;2023-06-22T00:38:45;101866.06;;;23.48;63.14
49813;BME280;35706;52.100;5.056;2023-06-22T00:40:46;101867.34;;;23.52;62.39
49813;BME280;35706;52.100;5.056;2023-06-22T00:41:46;101870.00;;;23.52;62.62
49813;BME280;35706;52.100;5.056;2023-06-22T00:42:47;101864.28;;;23.27;63.52
49813;BME280;35706;52.100;5.056;2023-06-22T00:43:47;101867.94;;;23.48;62.58
49813;BME280;35706;52.100;5.056;2023-06-22T00:44:47;101869.59;;;23.55;62.51
49813;BME280;35706;52.100;5.056;2023-06-22T00:45:48;101862.97;;;23.51;62.98
49813;BME280;35706;52.100;5.056;2023-06-22T00:46:48;101866.13;;;23.62;62.25
49813;BME280;35706;52.100;5.056;2023-06-22T00:47:51;101866.16;;;23.68;62.58
49813;BME280;35706;52.100;5.056;2023-06-22T00:48:52;101867.53;;;23.51;63.39
49813;BME280;35706;52.100;5.056;2023-06-22T00:49:52;101865.91;;;23.56;62.44
49813;BME280;35706;52.100;5.056;2023-06-22T00:50:53;101858.84;;;23.49;63.57
49813;BME280;35706;52.100;5.056;2023-06-22T00:51:57;101862.00;;;23.59;63.02
49813;BME280;35706;52.100;5.056;2023-06-22T00:52:59;101862.34;;;23.49;63.63
49813;BME280;35706;52.100;5.056;2023-06-22T00:54:00;101854.66;;;23.40;63.87
49813;BME280;35706;52.100;5.056;2023-06-22T00:55:02;101868.28;;;23.38;63.77
49813;BME280;35706;52.100;5.056;2023-06-22T00:56:02;101865.84;;;23.43;63.67
49813;BME280;35706;52.100;5.056;2023-06-22T00:57:03;101857.53;;;23.38;63.78
49813;BME280;35706;52.100;5.056;2023-06-22T00:58:06;101859.59;;;23.36;64.24
49813;BME280;35706;52.100;5.056;2023-06-22T00:59:10;101859.03;;;23.47;63.47
49813;BME280;35706;52.100;5.056;2023-06-22T01:00:12;101861.94;;;23.46;63.75
49813;BME280;35706;52.100;5.056;2023-06-22T01:01:18;101864.91;;;23.29;63.84
49813;BME280;35706;52.100;5.056;2023-06-22T01:02:23;101858.81;;;23.42;63.72
49813;BME280;35706;52.100;5.056;2023-06-22T01:03:23;101860.41;;;23.36;64.35
49813;BME280;35706;52.100;5.056;2023-06-22T01:04:34;101863.78;;;23.45;63.83
49813;BME280;35706;52.100;5.056;2023-06-22T01:05:35;101858.44;;;23.45;63.91
49813;BME280;35706;52.100;5.056;2023-06-22T01:06:40;101865.66;;;23.51;63.63
49813;BME280;35706;52.100;5.056;2023-06-22T01:09:20;101851.84;;;23.48;63.79
49813;BME280;35706;52.100;5.056;2023-06-22T01:10:41;101857.31;;;23.33;64.39
49813;BME280;35706;52.100;5.056;2023-06-22T01:11:53;101849.94;;;23.42;64.18
49813;BME280;35706;52.100;5.056;2023-06-22T01:13:00;101850.94;;;23.41;63.99
49813;BME280;35706;52.100;5.056;2023-06-22T01:14:14;101848.06;;;23.42;64.21
49813;BME280;35706;52.100;5.056;2023-06-22T01:15:40;101848.03;;;23.35;64.21
49813;BME280;35706;52.100;5.056;2023-06-22T01:16:44;101850.41;;;23.24;65.00
49813;BME280;35706;52.100;5.056;2023-06-22T01:17:45;101857.19;;;23.20;65.22
49813;BME280;35706;52.100;5.056;2023-06-22T01:18:51;101855.66;;;23.38;63.89
49813;BME280;35706;52.100;5.056;2023-06-22T01:19:54;101847.69;;;23.45;63.75
49813;BME280;35706;52.100;5.056;2023-06-22T01:20:56;101856.78;;;23.51;63.52
49813;BME280;35706;52.100;5.056;2023-06-22T01:22:00;101847.84;;;23.37;64.75
49813;BME280;35706;52.100;5.056;2023-06-22T01:26:17;101849.44;;;23.31;64.59
49813;BME280;35706;52.100;5.056;2023-06-22T01:27:53;101851.84;;;23.48;64.13
49813;BME280;35706;52.100;5.056;2023-06-22T01:28:57;101859.84;;;23.41;64.44
49813;BME280;35706;52.100;5.056;2023-06-22T01:30:02;101852.13;;;23.31;64.72
49813;BME280;35706;52.100;5.056;2023-06-22T01:31:05;101859.59;;;23.36;64.44
49813;BME280;35706;52.100;5.056;2023-06-22T01:32:10;101858.81;;;23.42;63.79
49813;BME280;35706;52.100;5.056;2023-06-22T01:33:13;101857.78;;;23.43;63.98
49813;BME280;35706;52.100;5.056;2023-06-22T01:34:15;101858.81;;;23.42;64.30
49813;BME280;35706;52.100;5.056;2023-06-22T01:35:16;101858.72;;;23.29;64.61
49813;BME280;35706;52.100;5.056;2023-06-22T01:36:18;101866.91;;;23.21;65.48
49813;BME280;35706;52.100;5.056;2023-06-22T01:37:19;101855.41;;;23.27;64.66
49813;BME280;35706;52.100;5.056;2023-06-22T01:38:20;101853.88;;;23.17;65.31
49813;BME280;35706;52.100;5.056;2023-06-22T01:39:21;101852.47;;;23.22;65.03
49813;BME280;35706;52.100;5.056;2023-06-22T01:40:22;101859.88;;;23.20;65.15
49813;BME280;35706;52.100;5.056;2023-06-22T01:41:26;101855.00;;;23.30;64.78
49813;BME280;35706;52.100;5.056;2023-06-22T01:42:26;101841.81;;;23.28;64.86
49813;BME280;35706;52.100;5.056;2023-06-22T01:43:27;101847.22;;;23.35;63.96
49813;BME280;35706;52.100;5.056;2023-06-22T01:44:28;101855.50;;;23.12;65.49
49813;BME280;35706;52.100;5.056;2023-06-22T01:45:30;101841.72;;;22.93;66.01
49813;BME280;35706;52.100;5.056;2023-06-22T01:46:30;101853.78;;;23.04;65.35
49813;BME280;35706;52.100;5.056;2023-06-22T01:47:31;101858.81;;;23.14;65.02
49813;BME280;35706;52.100;5.056;2023-06-22T01:48:32;101852.09;;;23.25;64.57
49813;BME280;35706;52.100;5.056;2023-06-22T01:49:33;101847.09;;;23.22;64.99
49813;BME280;35706;52.100;5.056;2023-06-22T01:50:33;101857.38;;;23.11;65.60
49813;BME280;35706;52.100;5.056;2023-06-22T01:51:33;101857.28;;;23.05;65.96
49813;BME280;35706;52.100;5.056;2023-06-22T01:52:34;101854.19;;;23.01;65.86
49813;BME280;35706;52.100;5.056;2023-06-22T01:53:34;101848.88;;;23.08;65.34
49813;BME280;35706;52.100;5.056;2023-06-22T01:54:35;101843.38;;;23.16;64.79
49813;BME280;35706;52.100;5.056;2023-06-22T01:55:35;101844.34;;;23.08;64.32
49813;BME280;35706;52.100;5.056;2023-06-22T01:56:35;101841.34;;;22.96;65.75
49813;BME280;35706;52.100;5.056;2023-06-22T01:57:36;101846.91;;;22.73;66.91
49813;BME280;35706;52.100;5.056;2023-06-22T01:58:48;101852.31;;;23.02;65.79
49813;BME280;35706;52.100;5.056;2023-06-22T02:00:00;101854.03;;;22.66;66.98
49813;BME280;35706;52.100;5.056;2023-06-22T02:01:10;101852.41;;;22.65;66.79
49813;BME280;35706;52.100;5.056;2023-06-22T02:02:11;101855.84;;;22.81;66.84
49813;BME280;35706;52.100;5.056;2023-06-22T02:03:18;101859.16;;;22.83;66.37
49813;BME280;35706;52.100;5.056;2023-06-22T02:04:23;101850.66;;;22.79;66.68
49813;BME280;35706;52.100;5.056;2023-06-22T02:05:28;101851.59;;;22.93;65.74
49813;BME280;35706;52.100;5.056;2023-06-22T02:06:33;101853.97;;;22.81;66.68
49813;BME280;35706;52.100;5.056;2023-06-22T02:07:46;101842.16;;;22.97;66.04
49813;BME280;35706;52.100;5.056;2023-06-22T02:08:53;101845.84;;;22.96;65.15
49813;BME280;35706;52.100;5.056;2023-06-22T02:09:54;101843.00;;;22.76;66.51
49813;BME280;35706;52.100;5.056;2023-06-22T02:10:57;101837.38;;;22.92;66.06
49813;BME280;35706;52.100;5.056;2023-06-22T02:12:00;101847.78;;;23.02;66.05
49813;BME280;35706;52.100;5.056;2023-06-22T02:13:05;101844.19;;;22.95;66.08
49813;BME280;35706;52.100;5.056;2023-06-22T02:14:07;101849.47;;;23.03;65.24
49813;BME280;35706;52.100;5.056;2023-06-22T02:15:09;101848.88;;;23.08;65.09
49813;BME280;35706;52.100;5.056;2023-06-22T02:16:14;101848.28;;;23.12;65.42
49813;BME280;35706;52.100;5.056;2023-06-22T02:17:16;101848.44;;;23.04;65.36
49813;BME280;35706;52.100;5.056;2023-06-22T02:18:16;101850.78;;;23.14;65.23
49813;BME280;35706;52.100;5.056;2023-06-22T02:19:17;101856.50;;;23.11;64.54
49813;BME280;35706;52.100;5.056;2023-06-22T02:20:18;101840.25;;;23.12;64.18
49813;BME280;35706;52.100;5.056;2023-06-22T02:21:19;101839.75;;;23.02;65.24
49813;BME280;35706;52.100;5.056;2023-06-22T02:22:20;101841.66;;;23.08;65.64
49813;BME280;35706;52.100;5.056;2023-06-22T02:23:20;101836.88;;;23.04;65.94
49813;BME280;35706;52.100;5.056;2023-06-22T02:24:20;101835.97;;;22.75;66.58
49813;BME280;35706;52.100;5.056;2023-06-22T02:25:23;101837.63;;;22.97;65.92
49813;BME280;35706;52.100;5.056;2023-06-22T02:26:25;101836.72;;;23.12;65.62
49813;BME280;35706;52.100;5.056;2023-06-22T02:27:25;101832.75;;;23.01;65.86
49813;BME280;35706;52.100;5.056;2023-06-22T02:28:26;101832.59;;;23.09;65.56
49813;BME280;35706;52.100;5.056;2023-06-22T02:29:26;101828.47;;;23.13;65.32
49813;BME280;35706;52.100;5.056;2023-06-22T02:30:27;101835.31;;;23.16;65.16
49813;BME280;35706;52.100;5.056;2023-06-22T02:31:27;101834.47;;;23.15;65.16
49813;BME280;35706;52.100;5.056;2023-06-22T02:32:30;101829.56;;;23.19;64.81
49813;BME280;35706;52.100;5.056;2023-06-22T02:33:30;101828.09;;;23.16;65.29
49813;BME280;35706;52.100;5.056;2023-06-22T02:34:31;101824.78;;;23.14;65.46
49813;BME280;35706;52.100;5.056;2023-06-22T02:35:34;101830.56;;;23.11;65.54
49813;BME280;35706;52.100;5.056;2023-06-22T02:36:35;101827.88;;;23.11;65.61
49813;BME280;35706;52.100;5.056;2023-06-22T02:37:36;101825.38;;;23.10;65.37
49813;BME280;35706;52.100;5.056;2023-06-22T02:38:41;101823.19;;;22.98;65.88
49813;BME280;35706;52.100;5.056;2023-06-22T02:39:48;101831.16;;;22.92;65.82
49813;BME280;35706;52.100;5.056;2023-06-22T02:40:48;101822.13;;;22.93;66.25
49813;BME280;35706;52.100;5.056;2023-06-22T02:41:53;101821.63;;;22.83;66.31
49813;BME280;35706;52.100;5.056;2023-06-22T02:42:53;101830.38;;;22.70;67.16
49813;BME280;35706;52.100;5.056;2023-06-22T02:43:54;101824.75;;;22.86;66.46
49813;BME280;35706;52.100;5.056;2023-06-22T02:44:54;101824.16;;;22.91;65.32
49813;BME280;35706;52.100;5.056;2023-06-22T02:45:55;101832.66;;;22.51;68.05
49813;BME280;35706;52.100;5.056;2023-06-22T02:46:55;101825.72;;;22.57;67.54
49813;BME280;35706;52.100;5.056;2023-06-22T02:47:56;101830.63;;;22.75;66.79
49813;BME280;35706;52.100;5.056;2023-06-22T02:48:56;101833.22;;;22.90;66.20
49813;BME280;35706;52.100;5.056;2023-06-22T02:49:57;101834.50;;;22.94;65.87
49813;BME280;35706;52.100;5.056;2023-06-22T02:50:57;101832.75;;;23.01;65.45
49813;BME280;35706;52.100;5.056;2023-06-22T02:51:57;101829.91;;;23.09;65.30
49813;BME280;35706;52.100;5.056;2023-06-22T02:52:58;101836.91;;;23.10;65.37
49813;BME280;35706;52.100;5.056;2023-06-22T02:53:58;101839.75;;;22.81;67.02
49813;BME280;35706;52.100;5.056;2023-06-22T02:54:58;101839.50;;;22.75;67.18
49813;BME280;35706;52.100;5.056;2023-06-22T02:55:59;101840.63;;;22.88;66.16
49813;BME280;35706;52.100;5.056;2023-06-22T02:57:01;101839.66;;;22.95;65.80
49813;BME280;35706;52.100;5.056;2023-06-22T02:58:05;101845.38;;;23.07;65.82
49813;BME280;35706;52.100;5.056;2023-06-22T02:59:05;101839.84;;;23.15;65.54
49813;BME280;35706;52.100;5.056;2023-06-22T03:00:06;101835.75;;;22.98;65.71
49813;BME280;35706;52.100;5.056;2023-06-22T03:01:16;101840.50;;;22.96;66.23
49813;BME280;35706;52.100;5.056;2023-06-22T03:02:16;101833.28;;;22.96;65.94
49813;BME280;35706;52.100;5.056;2023-06-22T03:03:17;101837.31;;;22.86;66.23
49813;BME280;35706;52.100;5.056;2023-06-22T03:04:18;101821.16;;;23.01;65.98
49813;BME280;35706;52.100;5.056;2023-06-22T03:05:18;101834.13;;;22.97;65.67
49813;BME280;35706;52.100;5.056;2023-06-22T03:06:19;101827.28;;;22.94;65.96
49813;BME280;35706;52.100;5.056;2023-06-22T03:07:23;101834.78;;;22.77;65.99
49813;BME280;35706;52.100;5.056;2023-06-22T03:08:23;101832.34;;;22.83;65.56
49813;BME280;35706;52.100;5.056;2023-06-22T03:09:23;101837.19;;;22.72;66.36
49813;BME280;35706;52.100;5.056;2023-06-22T03:10:24;101828.22;;;22.59;66.87
49813;BME280;35706;52.100;5.056;2023-06-22T03:11:24;101826.25;;;22.67;66.64
49813;BME280;35706;52.100;5.056;2023-06-22T03:12:24;101836.19;;;22.73;66.52
49813;BME280;35706;52.100;5.056;2023-06-22T03:13:25;101833.19;;;22.62;66.26
49813;BME280;35706;52.100;5.056;2023-06-22T03:14:25;101841.75;;;22.72;66.60
49813;BME280;35706;52.100;5.056;2023-06-22T03:15:26;101828.97;;;22.74;66.58
49813;BME280;35706;52.100;5.056;2023-06-22T03:16:29;101832.47;;;22.74;66.30
49813;BME280;35706;52.100;5.056;2023-06-22T03:17:29;101830.50;;;22.62;66.35
49813;BME280;35706;52.100;5.056;2023-06-22T03:18:30;101832.59;;;22.66;66.22
49813;BME280;35706;52.100;5.056;2023-06-22T03:19:30;101829.41;;;22.56;66.46
49813;BME280;35706;52.100;5.056;2023-06-22T03:20:31;101826.47;;;22.72;65.83
49813;BME280;35706;52.100;5.056;2023-06-22T03:21:33;101832.88;;;22.71;65.68
49813;BME280;35706;52.100;5.056;2023-06-22T03:22:34;101825.19;;;22.68;66.07
49813;BME280;35706;52.100;5.056;2023-06-22T03:23:34;101829.75;;;22.68;65.47
49813;BME280;35706;52.100;5.056;2023-06-22T03:24:34;101832.66;;;22.73;65.66
49813;BME280;35706;52.100;5.056;2023-06-22T03:25:37;101827.81;;;22.83;65.43
49813;BME280;35706;52.100;5.056;2023-06-22T03:26:37;101820.34;;;22.79;65.75
49813;BME280;35706;52.100;5.056;2023-06-22T03:27:38;101815.00;;;22.79;65.82
49813;BME280;35706;52.100;5.056;2023-06-22T03:28:38;101811.81;;;22.47;67.01
49813;BME280;35706;52.100;5.056;2023-06-22T03:29:39;101815.25;;;22.62;66.62
49813;BME280;35706;52.100;5.056;2023-06-22T03:30:39;101812.97;;;22.59;66.56
49813;BME280;35706;52.100;5.056;2023-06-22T03:31:40;101817.97;;;22.69;66.18
49813;BME280;35706;52.100;5.056;2023-06-22T03:32:40;101810.09;;;22.39;66.69
49813;BME280;35706;52.100;5.056;2023-06-22T03:33:40;101813.97;;;22.36;67.02
49813;BME280;35706;52.100;5.056;2023-06-22T03:34:44;101808.31;;;22.25;67.42
49813;BME280;35706;52.100;5.056;2023-06-22T03:35:47;101809.19;;;22.32;67.22
49813;BME280;35706;52.100;5.056;2023-06-22T03:36:47;101810.41;;;22.51;66.60
49813;BME280;35706;52.100;5.056;2023-06-22T03:37:48;101807.63;;;22.38;67.04
49813;BME280;35706;52.100;5.056;2023-06-22T03:38:49;101808.22;;;22.03;68.43
49813;BME280;35706;52.100;5.056;2023-06-22T03:39:50;101808.63;;;22.36;67.39
49813;BME280;35706;52.100;5.056;2023-06-22T03:40:50;101802.19;;;22.52;66.75
49813;BME280;35706;52.100;5.056;2023-06-22T03:41:51;101808.50;;;22.45;66.69
49813;BME280;35706;52.100;5.056;2023-06-22T03:42:51;101808.75;;;22.50;66.84
49813;BME280;35706;52.100;5.056;2023-06-22T03:43:51;101804.22;;;22.50;66.61
49813;BME280;35706;52.100;5.056;2023-06-22T03:44:51;101810.81;;;22.69;65.94
49813;BME280;35706;52.100;5.056;2023-06-22T03:45:52;101809.94;;;22.69;66.48
49813;BME280;35706;52.100;5.056;2023-06-22T03:46:52;101799.94;;;22.77;65.70
49813;BME280;35706;52.100;5.056;2023-06-22T03:47:52;101806.31;;;22.76;65.59
49813;BME280;35706;52.100;5.056;2023-06-22T03:48:53;101803.75;;;22.68;65.83
49813;BME280;35706;52.100;5.056;2023-06-22T03:49:53;101808.88;;;22.63;66.39
49813;BME280;35706;52.100;5.056;2023-06-22T03:50:55;101807.75;;;22.51;66.10
49813;BME280;35706;52.100;5.056;2023-06-22T03:51:55;101801.78;;;22.55;65.99
49813;BME280;35706;52.100;5.056;2023-06-22T03:52:55;101804.94;;;22.59;66.63
49813;BME280;35706;52.100;5.056;2023-06-22T03:53:56;101798.84;;;22.72;65.92
49813;BME280;35706;52.100;5.056;2023-06-22T03:54:56;101804.94;;;22.59;66.33
49813;BME280;35706;52.100;5.056;2023-06-22T03:55:56;101798.66;;;22.73;65.37
49813;BME280;35706;52.100;5.056;2023-06-22T03:56:57;101799.94;;;22.77;65.71
49813;BME280;35706;52.100;5.056;2023-06-22T03:57:58;101802.84;;;22.83;64.94
49813;BME280;35706;52.100;5.056;2023-06-22T03:58:58;101799.56;;;22.59;66.27
49813;BME280;35706;52.100;5.056;2023-06-22T04:00:01;101803.19;;;22.51;66.13
49813;BME280;35706;52.100;5.056;2023-06-22T04:01:05;101804.09;;;22.37;67.07
49813;BME280;35706;52.100;5.056;2023-06-22T04:02:06;101800.47;;;22.23;67.77
49813;BME280;35706;52.100;5.056;2023-06-22T04:03:07;101799.47;;;22.46;67.27
49813;BME280;35706;52.100;5.056;2023-06-22T04:04:07;101803.25;;;22.58;66.19
49813;BME280;35706;52.100;5.056;2023-06-22T04:05:08;101805.44;;;22.69;65.77
49813;BME280;35706;52.100;5.056;2023-06-22T04:06:09;101802.09;;;22.24;67.48
49813;BME280;35706;52.100;5.056;2023-06-22T04:07:09;101803.84;;;22.32;67.60
49813;BME280;35706;52.100;5.056;2023-06-22T04:08:10;101807.28;;;22.47;66.88
49813;BME280;35706;52.100;5.056;2023-06-22T04:09:10;101806.34;;;22.33;67.14
49813;BME280;35706;52.100;5.056;2023-06-22T04:10:11;101802.84;;;22.54;66.71
49813;BME280;35706;52.100;5.056;2023-06-22T04:11:11;101796.50;;;22.41;67.10
49813;BME280;35706;52.100;5.056;2023-06-22T04:12:11;101794.22;;;22.59;65.76
49813;BME280;35706;52.100;5.056;2023-06-22T04:13:11;101792.16;;;22.61;65.72
49813;BME280;35706;52.100;5.056;2023-06-22T04:14:12;101787.69;;;22.68;65.74
49813;BME280;35706;52.100;5.056;2023-06-22T04:15:12;101796.69;;;22.39;66.91
49813;BME280;35706;52.100;5.056;2023-06-22T04:16:12;101795.75;;;22.10;67.84
49813;BME280;35706;52.100;5.056;2023-06-22T04:17:13;101796.16;;;21.92;68.94
49813;BME280;35706;52.100;5.056;2023-06-22T04:18:14;101796.28;;;22.21;67.64
49813;BME280;35706;52.100;5.056;2023-06-22T04:19:15;101788.72;;;22.24;67.12
49813;BME280;35706;52.100;5.056;2023-06-22T04:20:17;101795.03;;;22.38;67.03
49813;BME280;35706;52.100;5.056;2023-06-22T04:21:18;101791.97;;;22.41;66.68
49813;BME280;35706;52.100;5.056;2023-06-22T04:22:19;101786.25;;;22.44;66.71
49813;BME280;35706;52.100;5.056;2023-06-22T04:23:19;101787.66;;;22.40;66.91
49813;BME280;35706;52.100;5.056;2023-06-22T04:24:20;101789.59;;;22.10;67.91
49813;BME280;35706;52.100;5.056;2023-06-22T04:25:21;101785.34;;;22.37;67.02
49813;BME280;35706;52.100;5.056;2023-06-22T04:26:22;101783.63;;;22.29;67.15
49813;BME280;35706;52.100;5.056;2023-06-22T04:27:22;101788.66;;;22.39;66.50
49813;BME280;35706;52.100;5.056;2023-06-22T04:28:23;101779.75;;;22.17;67.83
49813;BME280;35706;52.100;5.056;2023-06-22T04:29:23;101783.38;;;21.73;69.42
49813;BME280;35706;52.100;5.056;2023-06-22T04:30:28;101787.91;;;22.09;67.67
49813;BME280;35706;52.100;5.056;2023-06-22T04:31:32;101777.81;;;22.26;67.84
49813;BME280;35706;52.100;5.056;2023-06-22T04:32:36;101783.25;;;22.32;66.80
49813;BME280;35706;52.100;5.056;2023-06-22T04:33:37;101793.06;;;22.25;67.90
49813;BME280;35706;52.100;5.056;2023-06-22T04:34:41;101794.91;;;22.46;66.84
49813;BME280;35706;52.100;5.056;2023-06-22T04:35:41;101791.66;;;22.51;66.65
49813;BME280;35706;52.100;5.056;2023-06-22T04:36:42;101797.47;;;22.54;66.61
49813;BME280;35706;52.100;5.056;2023-06-22T04:37:42;101795.44;;;22.56;66.50
49813;BME280;35706;52.100;5.056;2023-06-22T04:38:43;101796.31;;;22.64;64.89
49813;BME280;35706;52.100;5.056;2023-06-22T04:39:44;101795.84;;;22.60;66.25
49813;BME280;35706;52.100;5.056;2023-06-22T04:40:44;101804.41;;;22.49;66.44
49813;BME280;35706;52.100;5.056;2023-06-22T04:41:45;101800.16;;;22.54;66.58
49813;BME280;35706;52.100;5.056;2023-06-22T04:42:45;101793.44;;;22.65;65.89
49813;BME280;35706;52.100;5.056;2023-06-22T04:43:52;101796.38;;;22.70;65.44
49813;BME280;35706;52.100;5.056;2023-06-22T04:44:54;101791.00;;;22.70;65.72
49813;BME280;35706;52.100;5.056;2023-06-22T04:45:54;101803.13;;;22.66;66.07
49813;BME280;35706;52.100;5.056;2023-06-22T04:46:58;101799.16;;;22.62;66.33
49813;BME280;35706;52.100;5.056;2023-06-22T04:48:03;101800.78;;;22.56;66.63
49813;BME280;35706;52.100;5.056;2023-06-22T04:49:08;101801.66;;;22.64;65.73
49813;BME280;35706;52.100;5.056;2023-06-22T04:50:10;101799.81;;;22.64;65.80
49813;BME280;35706;52.100;5.056;2023-06-22T04:51:10;101800.41;;;22.38;66.94
49813;BME280;35706;52.100;5.056;2023-06-22T04:52:12;101802.13;;;22.46;66.93
49813;BME280;35706;52.100;5.056;2023-06-22T04:53:13;101811.63;;;22.27;67.73
49813;BME280;35706;52.100;5.056;2023-06-22T04:54:14;101809.84;;;22.19;67.97
49813;BME280;35706;52.100;5.056;2023-06-22T04:55:14;101809.31;;;22.45;67.12
49813;BME280;35706;52.100;5.056;2023-06-22T04:56:18;101804.03;;;22.15;67.96
49813;BME280;35706;52.100;5.056;2023-06-22T04:57:18;101805.31;;;22.34;66.39
49813;BME280;35706;52.100;5.056;2023-06-22T04:58:19;101798.03;;;22.28;67.97
49813;BME280;35706;52.100;5.056;2023-06-22T04:59:19;101810.03;;;22.32;67.69
49813;BME280;35706;52.100;5.056;2023-06-22T05:00:20;101804.41;;;22.27;68.04
49813;BME280;35706;52.100;5.056;2023-06-22T05:01:23;101804.41;;;22.49;67.23
49813;BME280;35706;52.100;5.056;2023-06-22T05:02:24;101801.97;;;22.54;66.44
49813;BME280;35706;52.100;5.056;2023-06-22T05:03:27;101795.75;;;22.47;66.81
49813;BME280;35706;52.100;5.056;2023-06-22T05:04:29;101799.56;;;22.59;65.93
49813;BME280;35706;52.100;5.056;2023-06-22T05:05:32;101794.66;;;22.63;66.20
49813;BME280;35706;52.100;5.056;2023-06-22T05:06:33;101794.22;;;22.59;66.14
49813;BME280;35706;52.100;5.056;2023-06-22T05:07:34;101791.78;;;22.64;66.21
49813;BME280;35706;52.100;5.056;2023-06-22T05:08:34;101795.78;;;22.75;66.17
49813;BME280;35706;52.100;5.056;2023-06-22T05:09:35;101793.50;;;22.72;66.54
49813;BME280;35706;52.100;5.056;2023-06-22T05:10:35;101795.13;;;22.73;65.90
49813;BME280;35706;52.100;5.056;2023-06-22T05:11:35;101788.91;;;22.66;66.36
49813;BME280;35706;52.100;5.056;2023-06-22T05:12:36;101790.50;;;22.60;66.53
49813;BME280;35706;52.100;5.056;2023-06-22T05:13:37;101789.69;;;22.60;66.63
49813;BME280;35706;52.100;5.056;2023-06-22T05:14:37;101791.91;;;22.77;66.39
49813;BME280;35706;52.100;5.056;2023-06-22T05:15:37;101791.41;;;22.67;66.31
49813;BME280;35706;52.100;5.056;2023-06-22T05:16:41;101786.22;;;22.66;66.22
49813;BME280;35706;52.100;5.056;2023-06-22T05:17:42;101795.34;;;22.71;66.18
49813;BME280;35706;52.100;5.056;2023-06-22T05:18:45;101789.47;;;22.83;65.00
49813;BME280;35706;52.100;5.056;2023-06-22T05:19:45;101800.81;;;22.85;65.53
49813;BME280;35706;52.100;5.056;2023-06-22T05:20:48;101796.31;;;22.92;65.14
49813;BME280;35706;52.100;5.056;2023-06-22T05:21:48;101803.34;;;22.93;65.35
49813;BME280;35706;52.100;5.056;2023-06-22T05:22:49;101800.56;;;22.58;67.09
49813;BME280;35706;52.100;5.056;2023-06-22T05:23:49;101798.53;;;22.60;67.03
49813;BME280;35706;52.100;5.056;2023-06-22T05:24:50;101793.50;;;22.72;66.70
49813;BME280;35706;52.100;5.056;2023-06-22T05:25:51;101796.03;;;22.80;65.90
49813;BME280;35706;52.100;5.056;2023-06-22T05:26:51;101793.41;;;22.87;65.69
49813;BME280;35706;52.100;5.056;2023-06-22T05:27:52;101792.69;;;22.71;66.44
49813;BME280;35706;52.100;5.056;2023-06-22T05:28:52;101800.84;;;22.63;66.38